Time;durP1;ratioP1;P1;durP2;ratioP2;P2;SDS_P1;SDS_P2;PMS_P1;PMS_P2;Temp;Humidity;BMP_temperature;BMP_pressure;BME280_temperature;BME280_humidity;BME280_pressure;Samples;Min_cycle;Max_cycle;Signal;HPM_P1;HPM_P2
2023/04/27 00:00:47;;;;;;;6.28;2.80;;;;;;;;;;5072903;28;20028;-78
2023/04/27 00:03:14;;;;;;;4.35;2.95;;;;;;;;;;5069984;28;20039;-77
2023/04/27 00:05:41;;;;;;;5.45;3.15;;;;;;;;;;5069968;28;20024;-78
2023/04/27 00:08:07;;;;;;;4.55;2.55;;;;;;;;;;5070500;28;20095;-76
2023/04/27 00:10:33;;;;;;;2.35;2.15;;;;;;;;;;5068942;28;20062;-76
2023/04/27 00:13:00;;;;;;;3.40;2.25;;;;;;;;;;5068578;28;20032;-78
2023/04/27 00:15:26;;;;;;;4.25;2.08;;;;;;;;;;5070303;28;20021;-77
2023/04/27 00:17:56;;;;;;;5.55;2.15;;;;;;;;;;5071662;28;20115;-77
2023/04/27 00:20:25;;;;;;;4.55;3.00;;;;;;;;;;5070137;28;20487;-79
2023/04/27 00:22:51;;;;;;;3.50;2.42;;;;;;;;;;5069485;28;20366;-78
2023/04/27 00:25:17;;;;;;;4.97;2.90;;;;;;;;;;5069492;28;20111;-78
2023/04/27 00:27:43;;;;;;;6.65;3.70;;;;;;;;;;5069474;28;20031;-78
2023/04/27 00:30:09;;;;;;;4.82;2.90;;;;;;;;;;5069981;28;20024;-78
2023/04/27 00:32:35;;;;;;;6.05;3.42;;;;;;;;;;5069967;28;20027;-77
2023/04/27 00:35:01;;;;;;;8.35;3.17;;;;;;;;;;5069829;28;20025;-78
2023/04/27 00:37:27;;;;;;;5.35;3.28;;;;;;;;;;5074173;28;20074;-78
2023/04/27 00:39:53;;;;;;;3.63;3.00;;;;;;;;;;5072448;28;20020;-76
2023/04/27 00:42:20;;;;;;;2.47;2.25;;;;;;;;;;5074492;28;20522;-76
2023/04/27 00:44:46;;;;;;;7.43;2.78;;;;;;;;;;5071455;28;20123;-79
2023/04/27 00:47:12;;;;;;;2.60;2.28;;;;;;;;;;5072851;28;20047;-77
2023/04/27 00:49:39;;;;;;;3.50;3.10;;;;;;;;;;5073043;28;20428;-78
2023/04/27 00:52:06;;;;;;;2.50;2.30;;;;;;;;;;5073205;28;20028;-79
2023/04/27 00:54:32;;;;;;;3.50;3.15;;;;;;;;;;5073113;28;20477;-78
2023/04/27 00:56:58;;;;;;;3.10;2.38;;;;;;;;;;5074397;28;20032;-78
2023/04/27 00:59:25;;;;;;;2.78;2.40;;;;;;;;;;5085397;28;20031;-79
2023/04/27 01:01:52;;;;;;;3.92;2.28;;;;;;;;;;5094814;28;20090;-77
2023/04/27 01:04:18;;;;;;;2.67;2.47;;;;;;;;;;5094522;28;20130;-79
2023/04/27 01:06:44;;;;;;;4.63;2.92;;;;;;;;;;5098367;28;20020;-78
2023/04/27 01:09:11;;;;;;;3.72;2.45;;;;;;;;;;5096450;28;20031;-78
2023/04/27 01:11:37;;;;;;;9.30;4.00;;;;;;;;;;5093515;28;20028;-78
2023/04/27 01:14:04;;;;;;;4.38;3.08;;;;;;;;;;5088465;28;20089;-79
2023/04/27 01:16:30;;;;;;;5.47;2.92;;;;;;;;;;5091333;28;20020;-79
2023/04/27 01:18:56;;;;;;;3.15;2.78;;;;;;;;;;5091217;28;20032;-78
2023/04/27 01:21:23;;;;;;;4.88;3.22;;;;;;;;;;5090090;28;20534;-79
2023/04/27 01:23:49;;;;;;;13.13;3.80;;;;;;;;;;5092742;28;20361;-78
2023/04/27 01:26:15;;;;;;;2.72;2.53;;;;;;;;;;5091864;28;20077;-78
2023/04/27 01:28:41;;;;;;;3.63;2.25;;;;;;;;;;5090361;28;20514;-79
2023/04/27 01:31:07;;;;;;;7.65;3.17;;;;;;;;;;5088950;28;20024;-79
2023/04/27 01:33:33;;;;;;;3.72;3.05;;;;;;;;;;5087056;28;20480;-78
2023/04/27 01:36:00;;;;;;;8.40;4.10;;;;;;;;;;5091025;28;20563;-79
2023/04/27 01:38:26;;;;;;;9.57;3.50;;;;;;;;;;5092628;28;20039;-77
2023/04/27 01:40:54;;;;;;;4.35;3.63;;;;;;;;;;5092102;28;20044;-77
2023/04/27 01:43:20;;;;;;;5.47;3.55;;;;;;;;;;5090016;28;20044;-77
2023/04/27 01:45:47;;;;;;;4.30;3.22;;;;;;;;;;5091205;28;20027;-77
2023/04/27 01:48:13;;;;;;;5.55;3.85;;;;;;;;;;5088934;28;20487;-75
2023/04/27 01:50:39;;;;;;;4.60;3.40;;;;;;;;;;5087882;28;20073;-75
2023/04/27 01:53:05;;;;;;;4.60;3.13;;;;;;;;;;5090677;28;20031;-74
2023/04/27 01:55:31;;;;;;;5.22;3.08;;;;;;;;;;5091409;28;20028;-77
2023/04/27 01:57:57;;;;;;;5.97;4.10;;;;;;;;;;5092378;28;20020;-77
2023/04/27 02:00:23;;;;;;;5.97;4.47;;;;;;;;;;5071926;28;20055;-76
2023/04/27 02:02:52;;;;;;;8.13;3.65;;;;;;;;;;5072074;28;20028;-78
2023/04/27 02:05:18;;;;;;;5.47;3.08;;;;;;;;;;5072008;28;20063;-75
2023/04/27 02:07:44;;;;;;;10.05;3.97;;;;;;;;;;5071356;28;20070;-75
2023/04/27 02:10:10;;;;;;;6.90;3.22;;;;;;;;;;5068595;28;20401;-75
2023/04/27 02:12:36;;;;;;;6.45;4.18;;;;;;;;;;5069195;28;20264;-78
2023/04/27 02:15:02;;;;;;;11.35;4.15;;;;;;;;;;5069061;28;20435;-77
2023/04/27 02:17:30;;;;;;;5.45;3.80;;;;;;;;;;5068490;28;20025;-78
2023/04/27 02:19:56;;;;;;;15.02;4.60;;;;;;;;;;5068797;28;20137;-78
2023/04/27 02:22:22;;;;;;;5.03;4.00;;;;;;;;;;5068320;28;20428;-78
2023/04/27 02:24:48;;;;;;;7.53;4.30;;;;;;;;;;5066758;28;20035;-78
2023/04/27 02:27:14;;;;;;;8.23;4.45;;;;;;;;;;5066870;28;20073;-77
2023/04/27 02:29:40;;;;;;;8.07;4.28;;;;;;;;;;5067700;28;20032;-77
2023/04/27 02:32:06;;;;;;;9.63;4.05;;;;;;;;;;5068740;28;20040;-77
2023/04/27 02:34:32;;;;;;;8.52;3.90;;;;;;;;;;5068234;28;20483;-79
2023/04/27 02:36:58;;;;;;;6.38;4.35;;;;;;;;;;5067960;28;20400;-78
2023/04/27 02:39:24;;;;;;;7.32;4.05;;;;;;;;;;5067306;28;20028;-78
2023/04/27 02:41:50;;;;;;;7.00;3.88;;;;;;;;;;5067425;28;20020;-78
2023/04/27 02:44:16;;;;;;;11.38;5.20;;;;;;;;;;5067263;28;20440;-76
2023/04/27 02:46:42;;;;;;;6.88;4.97;;;;;;;;;;5067588;28;20059;-78
2023/04/27 02:49:08;;;;;;;8.55;5.25;;;;;;;;;;5066045;28;20067;-77
2023/04/27 02:51:34;;;;;;;9.63;5.10;;;;;;;;;;5066019;28;20027;-78
2023/04/27 02:54:00;;;;;;;10.88;5.85;;;;;;;;;;5067376;28;20141;-79
2023/04/27 02:56:26;;;;;;;10.32;4.95;;;;;;;;;;5067398;28;20025;-77
2023/04/27 02:58:52;;;;;;;8.73;5.32;;;;;;;;;;5073807;28;20396;-78
2023/04/27 03:01:18;;;;;;;7.38;5.22;;;;;;;;;;5087163;28;20028;-77
2023/04/27 03:03:47;;;;;;;8.95;5.78;;;;;;;;;;5086864;28;20040;-79
2023/04/27 03:06:13;;;;;;;8.77;5.17;;;;;;;;;;5084477;28;20095;-75
2023/04/27 03:08:39;;;;;;;11.60;5.63;;;;;;;;;;5067002;28;20666;-77
2023/04/27 03:11:06;;;;;;;9.20;5.57;;;;;;;;;;5067023;28;20025;-78
2023/04/27 03:13:40;;;;;;;9.75;5.32;;;;;;;;;;5066858;28;20043;-75
2023/04/27 03:16:06;;;;;;;7.93;4.45;;;;;;;;;;5067929;28;20100;-77
2023/04/27 03:18:32;;;;;;;11.27;6.28;;;;;;;;;;5066697;28;20047;-78
2023/04/27 03:21:05;;;;;;;11.50;6.00;;;;;;;;;;5067179;28;20604;-78
2023/04/27 03:23:31;;;;;;;8.95;6.10;;;;;;;;;;5067031;28;20037;-75
2023/04/27 03:25:57;;;;;;;8.40;4.93;;;;;;;;;;5066871;28;20025;-78
2023/04/27 03:28:23;;;;;;;11.60;5.80;;;;;;;;;;5066263;28;20055;-78
2023/04/27 03:30:49;;;;;;;12.23;5.95;;;;;;;;;;5066641;28;20063;-76
2023/04/27 03:33:17;;;;;;;8.68;5.57;;;;;;;;;;5065025;28;20595;-77
2023/04/27 03:35:43;;;;;;;12.45;6.75;;;;;;;;;;5066128;28;20031;-75
2023/04/27 03:38:09;;;;;;;10.50;6.13;;;;;;;;;;5066410;28;20489;-77
2023/04/27 03:40:35;;;;;;;10.15;5.78;;;;;;;;;;5066948;28;20550;-78
2023/04/27 03:43:01;;;;;;;8.95;6.03;;;;;;;;;;5066826;28;20568;-77
2023/04/27 03:45:27;;;;;;;12.68;6.32;;;;;;;;;;5066427;28;20048;-75
2023/04/27 03:47:53;;;;;;;12.88;7.53;;;;;;;;;;5066059;28;20028;-77
2023/04/27 03:50:19;;;;;;;13.93;6.85;;;;;;;;;;5067717;28;20029;-77
2023/04/27 03:52:47;;;;;;;9.00;5.82;;;;;;;;;;5066932;28;20484;-75
2023/04/27 03:55:13;;;;;;;12.30;6.57;;;;;;;;;;5067952;28;20056;-79
2023/04/27 03:57:40;;;;;;;8.60;6.03;;;;;;;;;;5067819;28;20470;-75
2023/04/27 04:00:10;;;;;;;8.80;6.07;;;;;;;;;;5085969;28;20024;-78
2023/04/27 04:02:36;;;;;;;8.35;5.88;;;;;;;;;;5086974;28;20020;-75
2023/04/27 04:05:02;;;;;;;12.40;6.72;;;;;;;;;;5089678;28;20040;-79
2023/04/27 04:07:28;;;;;;;11.63;6.13;;;;;;;;;;5091883;28;20024;-78
2023/04/27 04:09:55;;;;;;;10.68;6.18;;;;;;;;;;5091014;28;20099;-78
2023/04/27 04:12:21;;;;;;;9.68;6.80;;;;;;;;;;5091550;28;20024;-78
2023/04/27 04:14:47;;;;;;;10.10;6.18;;;;;;;;;;5091141;28;20589;-76
2023/04/27 04:17:13;;;;;;;10.00;6.22;;;;;;;;;;5091903;28;20085;-78
2023/04/27 04:19:40;;;;;;;11.68;7.78;;;;;;;;;;5093572;28;20484;-78
2023/04/27 04:22:06;;;;;;;15.05;6.72;;;;;;;;;;5094005;28;20059;-75
2023/04/27 04:24:32;;;;;;;10.80;7.32;;;;;;;;;;5093512;28;20028;-79
2023/04/27 04:26:58;;;;;;;12.48;7.32;;;;;;;;;;5089848;28;20073;-76
2023/04/27 04:29:24;;;;;;;12.50;6.03;;;;;;;;;;5090698;28;20031;-75
2023/04/27 04:31:51;;;;;;;10.75;6.47;;;;;;;;;;5091760;28;20024;-79
2023/04/27 04:34:18;;;;;;;13.88;6.57;;;;;;;;;;5087401;28;20032;-77
2023/04/27 04:36:44;;;;;;;10.95;6.22;;;;;;;;;;5091987;28;20024;-79
2023/04/27 04:39:11;;;;;;;13.13;7.90;;;;;;;;;;5092291;28;20278;-79
2023/04/27 04:41:37;;;;;;;11.18;7.10;;;;;;;;;;5106331;28;20593;-75
2023/04/27 04:44:04;;;;;;;14.75;6.82;;;;;;;;;;5090497;28;20487;-75
2023/04/27 04:46:30;;;;;;;13.85;7.53;;;;;;;;;;5092452;28;20507;-77
2023/04/27 04:48:56;;;;;;;12.93;7.45;;;;;;;;;;5083990;28;20028;-80
2023/04/27 04:51:22;;;;;;;11.70;7.20;;;;;;;;;;5085287;28;20028;-80
2023/04/27 04:53:48;;;;;;;12.32;6.88;;;;;;;;;;5094173;28;20020;-78
2023/04/27 04:56:15;;;;;;;13.57;8.35;;;;;;;;;;5093881;28;20024;-79
2023/04/27 04:58:41;;;;;;;15.00;7.72;;;;;;;;;;5095915;28;20020;-78
2023/04/27 05:01:07;;;;;;;12.98;8.05;;;;;;;;;;5094398;28;20062;-79
2023/04/27 05:03:33;;;;;;;16.80;7.93;;;;;;;;;;5093768;28;20032;-79
2023/04/27 05:05:59;;;;;;;14.57;6.50;;;;;;;;;;5095432;28;20028;-76
2023/04/27 05:08:25;;;;;;;15.50;7.35;;;;;;;;;;5095509;28;20031;-78
2023/04/27 05:10:54;;;;;;;17.02;7.60;;;;;;;;;;5094464;28;20027;-78
2023/04/27 05:13:20;;;;;;;12.13;7.10;;;;;;;;;;5093955;28;20099;-78
2023/04/27 05:15:47;;;;;;;11.75;6.95;;;;;;;;;;5093260;28;20092;-79
2023/04/27 05:18:13;;;;;;;13.68;7.05;;;;;;;;;;5092914;28;20032;-79
2023/04/27 05:20:39;;;;;;;14.07;8.43;;;;;;;;;;5093872;28;20730;-80
2023/04/27 05:23:05;;;;;;;14.27;7.95;;;;;;;;;;5091515;28;20675;-78
2023/04/27 05:25:31;;;;;;;13.07;6.80;;;;;;;;;;5091174;28;20035;-79
2023/04/27 05:27:58;;;;;;;10.82;6.88;;;;;;;;;;5092430;28;20087;-79
2023/04/27 05:30:24;;;;;;;10.80;6.70;;;;;;;;;;5094839;28;20038;-80
2023/04/27 05:32:50;;;;;;;12.55;6.90;;;;;;;;;;5095092;28;20050;-77
2023/04/27 05:35:19;;;;;;;11.45;6.43;;;;;;;;;;5094796;28;20059;-77
2023/04/27 05:37:45;;;;;;;11.38;7.13;;;;;;;;;;5091835;28;20115;-78
2023/04/27 05:40:11;;;;;;;10.63;6.90;;;;;;;;;;5095265;28;20483;-78
2023/04/27 05:42:37;;;;;;;9.13;6.40;;;;;;;;;;5094549;28;20389;-79
2023/04/27 05:45:03;;;;;;;15.93;6.28;;;;;;;;;;5092285;28;20066;-78
2023/04/27 05:47:30;;;;;;;11.15;6.25;;;;;;;;;;5092529;28;20024;-79
2023/04/27 05:49:56;;;;;;;7.93;6.07;;;;;;;;;;5093779;28;20047;-79
2023/04/27 05:52:28;;;;;;;8.43;4.97;;;;;;;;;;5092760;28;20476;-78
2023/04/27 05:54:54;;;;;;;12.35;5.93;;;;;;;;;;5092047;28;20020;-77
2023/04/27 05:57:20;;;;;;;10.80;5.57;;;;;;;;;;5090827;28;20070;-78
2023/04/27 05:59:46;;;;;;;8.35;5.85;;;;;;;;;;5090240;28;20024;-79
2023/04/27 06:02:12;;;;;;;8.57;4.75;;;;;;;;;;5088504;28;20020;-79
2023/04/27 06:04:38;;;;;;;6.68;5.00;;;;;;;;;;5090191;28;20043;-77
2023/04/27 06:07:08;;;;;;;8.48;5.97;;;;;;;;;;5089202;28;20036;-77
2023/04/27 06:09:34;;;;;;;7.28;4.53;;;;;;;;;;5092605;28;20036;-77
2023/04/27 06:12:01;;;;;;;9.35;5.00;;;;;;;;;;5094464;28;20086;-78
2023/04/27 06:14:27;;;;;;;10.48;4.75;;;;;;;;;;5093341;28;20779;-78
2023/04/27 06:16:53;;;;;;;6.82;4.90;;;;;;;;;;5099881;28;20039;-79
2023/04/27 06:19:19;;;;;;;8.48;4.72;;;;;;;;;;5102867;28;20036;-78
2023/04/27 06:21:46;;;;;;;7.00;4.10;;;;;;;;;;5102310;28;20044;-75
2023/04/27 06:24:11;;;;;;;5.75;3.35;;;;;;;;;;5102767;28;20067;-75
2023/04/27 06:26:37;;;;;;;4.75;3.63;;;;;;;;;;5103155;28;20364;-79
2023/04/27 06:29:06;;;;;;;6.55;3.90;;;;;;;;;;5102029;28;20024;-77
2023/04/27 06:31:32;;;;;;;6.25;3.95;;;;;;;;;;5102441;28;20012;-80
2023/04/27 06:33:58;;;;;;;6.18;3.80;;;;;;;;;;5100718;28;20024;-81
2023/04/27 06:36:27;;;;;;;8.35;3.95;;;;;;;;;;5100582;28;20066;-78
2023/04/27 06:38:56;;;;;;;;;;;;;;;;;;5099585;28;20063;-79
2023/04/27 06:41:23;;;;;;;6.20;4.28;;;;;;;;;;5101333;28;19912;-78
2023/04/27 06:43:50;;;;;;;5.25;4.15;;;;;;;;;;5100022;28;20040;-75
2023/04/27 06:46:16;;;;;;;10.40;4.22;;;;;;;;;;5102171;28;20028;-77
2023/04/27 06:48:42;;;;;;;5.60;3.92;;;;;;;;;;5099173;28;20012;-79
2023/04/27 06:51:08;;;;;;;5.18;3.60;;;;;;;;;;5101134;28;20104;-76
2023/04/27 06:53:34;;;;;;;5.40;4.00;;;;;;;;;;5100735;28;20031;-77
2023/04/27 06:56:00;;;;;;;5.78;3.58;;;;;;;;;;5103437;28;20043;-82
2023/04/27 06:58:26;;;;;;;8.13;4.18;;;;;;;;;;5100995;28;20016;-76
2023/04/27 07:00:52;;;;;;;6.28;3.72;;;;;;;;;;5102105;28;20038;-78
2023/04/27 07:03:19;;;;;;;6.40;3.70;;;;;;;;;;5100602;28;20092;-79
2023/04/27 07:05:45;;;;;;;3.15;2.58;;;;;;;;;;5093624;28;20027;-81
2023/04/27 07:08:12;;;;;;;6.97;4.18;;;;;;;;;;5095653;28;20115;-75
2023/04/27 07:10:38;;;;;;;5.57;3.78;;;;;;;;;;5114858;28;20057;-80
2023/04/27 07:13:04;;;;;;;6.13;3.50;;;;;;;;;;5098491;28;20051;-81
2023/04/27 07:15:30;;;;;;;5.53;3.13;;;;;;;;;;5101128;28;20028;-79
2023/04/27 07:17:56;;;;;;;3.72;2.97;;;;;;;;;;5101814;28;20061;-78
2023/04/27 07:20:22;;;;;;;7.35;3.40;;;;;;;;;;5100178;28;20099;-81
2023/04/27 07:22:48;;;;;;;8.98;4.07;;;;;;;;;;5102226;28;20274;-80
2023/04/27 07:25:15;;;;;;;7.93;3.60;;;;;;;;;;5097385;28;20281;-79
2023/04/27 07:27:41;;;;;;;5.63;2.90;;;;;;;;;;5097040;28;20396;-79
2023/04/27 07:30:08;;;;;;;3.03;2.45;;;;;;;;;;5097306;28;20343;-75
2023/04/27 07:32:39;;;;;;;3.67;2.53;;;;;;;;;;5099507;28;20020;-79
2023/04/27 07:35:05;;;;;;;3.05;2.42;;;;;;;;;;5100738;28;20022;-78
2023/04/27 07:37:31;;;;;;;5.65;2.83;;;;;;;;;;5099361;28;20044;-78
2023/04/27 07:39:58;;;;;;;5.18;2.67;;;;;;;;;;5094965;28;20048;-77
2023/04/27 07:42:24;;;;;;;3.60;2.20;;;;;;;;;;5100659;28;20243;-77
2023/04/27 07:44:51;;;;;;;3.33;2.30;;;;;;;;;;5103997;28;20031;-76
2023/04/27 07:47:20;;;;;;;3.03;2.67;;;;;;;;;;5096487;28;20017;-77
2023/04/27 07:49:47;;;;;;;6.28;3.97;;;;;;;;;;5101742;28;20028;-79
2023/04/27 07:52:13;;;;;;;4.07;2.88;;;;;;;;;;5120105;28;20053;-78
2023/04/27 07:54:39;;;;;;;3.90;3.15;;;;;;;;;;5122037;28;20027;-76
2023/04/27 07:57:10;;;;;;;3.70;3.40;;;;;;;;;;5120833;28;20034;-75
2023/04/27 07:59:36;;;;;;;7.10;3.70;;;;;;;;;;5121237;28;20038;-75
2023/04/27 08:02:02;;;;;;;8.30;3.05;;;;;;;;;;5103759;28;20023;-76
2023/04/27 08:04:28;;;;;;;3.80;2.72;;;;;;;;;;5103609;28;20035;-78
2023/04/27 08:06:54;;;;;;;3.67;3.10;;;;;;;;;;5101312;28;20019;-76
2023/04/27 08:09:20;;;;;;;3.45;2.42;;;;;;;;;;5100976;28;20426;-76
2023/04/27 08:11:46;;;;;;;2.78;2.47;;;;;;;;;;5095698;28;20020;-79
2023/04/27 08:14:12;;;;;;;5.03;2.70;;;;;;;;;;5097173;28;20055;-78
2023/04/27 08:16:42;;;;;;;3.28;2.80;;;;;;;;;;5092892;28;20047;-79
2023/04/27 08:19:08;;;;;;;3.70;3.20;;;;;;;;;;5091297;28;20096;-79
2023/04/27 08:21:38;;;;;;;4.65;2.72;;;;;;;;;;5096829;28;20289;-77
2023/04/27 08:24:04;;;;;;;;;;;;;;;;;;5094689;28;20074;-79
2023/04/27 08:26:31;;;;;;;4.25;2.72;;;;;;;;;;5090102;28;19911;-78
2023/04/27 08:28:58;;;;;;;4.32;3.17;;;;;;;;;;5079797;28;20024;-77
2023/04/27 08:31:24;;;;;;;3.55;2.25;;;;;;;;;;5071156;28;20779;-82
2023/04/27 08:33:51;;;;;;;4.40;2.42;;;;;;;;;;5087116;28;20120;-80
2023/04/27 08:36:17;;;;;;;2.83;2.40;;;;;;;;;;5109512;28;20020;-79
2023/04/27 08:38:43;;;;;;;3.05;2.75;;;;;;;;;;5114007;28;20054;-79
2023/04/27 08:41:09;;;;;;;3.78;2.58;;;;;;;;;;5111486;28;20402;-79
2023/04/27 08:43:35;;;;;;;4.15;2.58;;;;;;;;;;5094742;28;20039;-77
2023/04/27 08:46:02;;;;;;;3.15;2.00;;;;;;;;;;5094987;28;20020;-78
2023/04/27 08:48:28;;;;;;;3.00;2.28;;;;;;;;;;5106673;28;20032;-79
2023/04/27 08:50:56;;;;;;;5.07;3.20;;;;;;;;;;5088158;28;20028;-77
2023/04/27 08:53:22;;;;;;;4.18;2.30;;;;;;;;;;5105779;28;20024;-79
2023/04/27 08:55:51;;;;;;;2.80;2.20;;;;;;;;;;5101566;28;20339;-76
2023/04/27 08:58:17;;;;;;;7.25;2.45;;;;;;;;;;5118291;28;20081;-76
2023/04/27 09:00:45;;;;;;;4.15;1.88;;;;;;;;;;5102767;28;20085;-76
2023/04/27 09:03:27;;;;;;;2.22;1.50;;;;;;;;;;5103094;28;20083;-77
2023/04/27 09:05:53;;;;;;;6.28;2.25;;;;;;;;;;5105851;28;20042;-78
2023/04/27 09:08:19;;;;;;;7.25;2.50;;;;;;;;;;5099012;28;20474;-79
2023/04/27 09:10:54;;;;;;;2.53;1.27;;;;;;;;;;5097243;28;20468;-78
2023/04/27 09:13:20;;;;;;;2.17;1.20;;;;;;;;;;5097591;28;20028;-78
2023/04/27 09:15:50;;;;;;;1.63;1.50;;;;;;;;;;5098383;28;20178;-77
2023/04/27 09:18:17;;;;;;;1.75;1.50;;;;;;;;;;5092839;28;20051;-79
2023/04/27 09:20:46;;;;;;;2.15;1.20;;;;;;;;;;5102483;28;20048;-76
2023/04/27 09:23:32;;;;;;;4.22;1.60;;;;;;;;;;5098751;28;20024;-77
2023/04/27 09:25:59;;;;;;;2.42;1.13;;;;;;;;;;5090334;28;20388;-76
2023/04/27 09:28:26;;;;;;;1.20;0.90;;;;;;;;;;5089806;28;20553;-77
2023/04/27 09:30:53;;;;;;;4.13;1.90;;;;;;;;;;5087186;28;20024;-76
2023/04/27 09:33:23;;;;;;;2.03;1.48;;;;;;;;;;5099593;28;20024;-76
2023/04/27 09:35:50;;;;;;;3.08;1.38;;;;;;;;;;5094962;28;20026;-75
2023/04/27 09:38:17;;;;;;;2.38;1.15;;;;;;;;;;5112546;28;20031;-78
2023/04/27 09:40:43;;;;;;;1.98;1.50;;;;;;;;;;5104749;28;20618;-78
2023/04/27 09:43:10;;;;;;;3.42;1.33;;;;;;;;;;5101856;28;20503;-77
2023/04/27 09:45:37;;;;;;;3.67;1.20;;;;;;;;;;5102554;28;20093;-77
2023/04/27 09:48:06;;;;;;;3.88;1.55;;;;;;;;;;5091844;28;20020;-76
2023/04/27 09:50:36;;;;;;;3.92;1.73;;;;;;;;;;5094828;28;20024;-76
2023/04/27 09:53:03;;;;;;;2.08;1.20;;;;;;;;;;5110062;28;20024;-76
2023/04/27 09:55:52;;;;;;;2.17;1.15;;;;;;;;;;5093998;28;20044;-76
2023/04/27 09:58:50;;;;;;;2.13;1.48;;;;;;;;;;5086836;28;20040;-76
2023/04/27 10:01:19;;;;;;;1.17;0.93;;;;;;;;;;5073005;28;20135;-76
2023/04/27 10:03:55;;;;;;;4.35;1.30;;;;;;;;;;5112408;28;20032;-76
2023/04/27 10:06:36;;;;;;;1.88;1.00;;;;;;;;;;5113617;28;20456;-76
2023/04/27 10:09:05;;;;;;;3.25;1.38;;;;;;;;;;5112848;28;20579;-76
2023/04/27 10:11:42;;;;;;;4.03;1.85;;;;;;;;;;5109112;28;20024;-76
2023/04/27 10:14:10;;;;;;;2.22;1.55;;;;;;;;;;5094983;28;20042;-76
2023/04/27 10:16:45;;;;;;;1.33;1.23;;;;;;;;;;5095909;28;20027;-76
2023/04/27 10:19:12;;;;;;;4.53;2.05;;;;;;;;;;5095670;28;20388;-75
2023/04/27 10:21:38;;;;;;;1.88;1.77;;;;;;;;;;5095307;28;20457;-76
2023/04/27 10:24:08;;;;;;;1.33;1.20;;;;;;;;;;5091058;28;20028;-76
2023/04/27 10:26:35;;;;;;;2.33;1.40;;;;;;;;;;5111353;28;20456;-76
2023/04/27 10:29:08;;;;;;;2.60;1.77;;;;;;;;;;5095814;28;20024;-76
2023/04/27 10:31:34;;;;;;;5.72;1.70;;;;;;;;;;5111447;28;20024;-76
2023/04/27 10:34:07;;;;;;;2.25;1.80;;;;;;;;;;5094499;28;20024;-76
2023/04/27 10:36:40;;;;;;;1.58;1.48;;;;;;;;;;5105699;28;20567;-76
2023/04/27 10:39:17;;;;;;;10.02;2.00;;;;;;;;;;5091648;28;20024;-76
2023/04/27 10:41:50;;;;;;;7.70;2.05;;;;;;;;;;5109366;28;20438;-76
2023/04/27 10:44:29;;;;;;;2.17;1.98;;;;;;;;;;5091003;28;20053;-76
2023/04/27 10:46:55;;;;;;;1.57;1.47;;;;;;;;;;5089672;28;20031;-76
2023/04/27 10:49:22;;;;;;;3.63;1.55;;;;;;;;;;5105116;28;20020;-75
2023/04/27 10:51:50;;;;;;;7.00;2.22;;;;;;;;;;5092080;28;20076;-76
2023/04/27 10:54:16;;;;;;;4.53;2.13;;;;;;;;;;5089634;28;20536;-76
2023/04/27 10:56:42;;;;;;;5.97;1.95;;;;;;;;;;5090139;28;20031;-75
2023/04/27 10:59:08;;;;;;;2.40;1.80;;;;;;;;;;5089539;28;20034;-76
2023/04/27 11:01:35;;;;;;;2.17;1.65;;;;;;;;;;5089972;28;20020;-76
2023/04/27 11:04:02;;;;;;;3.47;1.90;;;;;;;;;;5089285;28;20396;-75
2023/04/27 11:06:29;;;;;;;1.80;1.50;;;;;;;;;;5089647;28;20021;-76
2023/04/27 11:08:56;;;;;;;2.67;1.35;;;;;;;;;;5089619;28;20063;-75
2023/04/27 11:11:23;;;;;;;2.47;1.85;;;;;;;;;;5104825;28;20024;-76
2023/04/27 11:13:51;;;;;;;4.18;2.03;;;;;;;;;;5093929;28;20051;-75
2023/04/27 11:16:18;;;;;;;1.90;1.80;;;;;;;;;;5116083;28;20020;-76
2023/04/27 11:18:45;;;;;;;1.55;1.45;;;;;;;;;;5096695;28;20079;-75
2023/04/27 11:21:13;;;;;;;1.73;1.63;;;;;;;;;;5101550;28;20044;-75
2023/04/27 11:23:40;;;;;;;2.20;1.85;;;;;;;;;;5116625;28;20061;-75
2023/04/27 11:26:13;;;;;;;4.25;1.63;;;;;;;;;;5095078;28;20077;-75
2023/04/27 11:28:39;;;;;;;2.10;1.75;;;;;;;;;;5092989;28;20020;-76
2023/04/27 11:31:06;;;;;;;2.10;1.83;;;;;;;;;;5093545;28;20109;-76
2023/04/27 11:33:32;;;;;;;5.32;1.75;;;;;;;;;;5093487;28;20031;-76
2023/04/27 11:35:58;;;;;;;3.85;2.10;;;;;;;;;;5093809;28;20085;-75
2023/04/27 11:38:25;;;;;;;6.35;1.77;;;;;;;;;;5093362;28;20482;-75
2023/04/27 11:41:05;;;;;;;5.63;2.15;;;;;;;;;;5093412;28;20016;-76
2023/04/27 11:43:31;;;;;;;3.53;1.92;;;;;;;;;;5092680;28;20355;-76
2023/04/27 11:45:57;;;;;;;2.50;1.38;;;;;;;;;;5092979;28;20102;-76
2023/04/27 11:48:24;;;;;;;1.35;1.20;;;;;;;;;;5108599;28;20020;-76
2023/04/27 11:50:52;;;;;;;2.88;1.38;;;;;;;;;;5092934;28;20535;-76
2023/04/27 11:53:29;;;;;;;1.83;1.40;;;;;;;;;;5108732;28;20517;-76
2023/04/27 11:55:55;;;;;;;1.27;1.23;;;;;;;;;;5108554;28;20024;-76
2023/04/27 11:58:21;;;;;;;1.58;1.48;;;;;;;;;;5092678;28;20032;-76
2023/04/27 12:00:47;;;;;;;3.78;1.60;;;;;;;;;;5108394;28;20071;-76
2023/04/27 12:03:13;;;;;;;2.83;1.80;;;;;;;;;;5092572;28;20039;-76
2023/04/27 12:05:49;;;;;;;2.55;1.83;;;;;;;;;;5092707;28;20488;-76
2023/04/27 12:08:16;;;;;;;3.75;1.60;;;;;;;;;;5092681;28;20020;-76
2023/04/27 12:10:42;;;;;;;1.40;1.30;;;;;;;;;;5092867;28;20059;-76
2023/04/27 12:13:08;;;;;;;1.80;1.23;;;;;;;;;;5092402;28;20093;-76
2023/04/27 12:15:34;;;;;;;2.40;1.98;;;;;;;;;;5108288;28;20319;-75
2023/04/27 12:18:00;;;;;;;1.80;1.45;;;;;;;;;;5092499;28;20699;-76
2023/04/27 12:20:26;;;;;;;1.50;1.38;;;;;;;;;;5107966;28;20048;-75
2023/04/27 12:22:52;;;;;;;1.90;1.80;;;;;;;;;;5092224;28;20487;-75
2023/04/27 12:25:18;;;;;;;1.25;1.10;;;;;;;;;;5107756;28;20072;-76
2023/04/27 12:27:46;;;;;;;4.63;1.48;;;;;;;;;;5091730;28;20024;-75
2023/04/27 12:30:13;;;;;;;5.55;1.30;;;;;;;;;;5105601;28;20388;-76
2023/04/27 12:32:39;;;;;;;3.17;1.45;;;;;;;;;;5084697;28;20498;-73
2023/04/27 12:35:06;;;;;;;1.63;1.35;;;;;;;;;;5089825;28;20123;-76
2023/04/27 12:37:32;;;;;;;3.85;1.45;;;;;;;;;;5092558;28;20028;-76
2023/04/27 12:39:58;;;;;;;1.30;1.20;;;;;;;;;;5089005;28;20024;-76
2023/04/27 12:42:24;;;;;;;5.30;1.42;;;;;;;;;;5079210;28;20027;-76
2023/04/27 12:44:51;;;;;;;1.30;1.20;;;;;;;;;;5076948;28;20335;-77
2023/04/27 12:47:17;;;;;;;4.78;1.40;;;;;;;;;;5105802;28;20254;-77
2023/04/27 12:49:44;;;;;;;2.88;1.40;;;;;;;;;;5079307;28;20056;-76
2023/04/27 12:52:10;;;;;;;2.05;1.40;;;;;;;;;;5076818;28;20020;-77
2023/04/27 12:54:36;;;;;;;2.10;1.00;;;;;;;;;;5078014;28;20078;-77
2023/04/27 12:57:05;;;;;;;2.33;1.00;;;;;;;;;;5085954;28;20488;-76
2023/04/27 12:59:31;;;;;;;;;;;;;;;;;;5095562;28;20063;-76
2023/04/27 13:01:57;;;;;;;1.20;1.10;;;;;;;;;;5069365;28;19956;-76
2023/04/27 13:04:25;;;;;;;3.10;1.50;;;;;;;;;;5084787;28;20044;-76
2023/04/27 13:06:51;;;;;;;3.72;1.80;;;;;;;;;;5068915;28;20020;-76
2023/04/27 13:09:17;;;;;;;1.30;1.20;;;;;;;;;;5080153;28;20415;-76
2023/04/27 13:11:43;;;;;;;2.97;1.45;;;;;;;;;;5072641;28;20031;-77
2023/04/27 13:14:11;;;;;;;1.42;1.30;;;;;;;;;;5068289;28;20055;-78
2023/04/27 13:16:38;;;;;;;1.20;1.10;;;;;;;;;;5088882;28;20031;-77
2023/04/27 13:19:04;;;;;;;1.90;1.48;;;;;;;;;;5091323;28;20023;-76
2023/04/27 13:21:32;;;;;;;5.78;1.23;;;;;;;;;;5087978;28;20102;-76
2023/04/27 13:23:58;;;;;;;1.58;1.27;;;;;;;;;;5093040;28;20024;-77
2023/04/27 13:26:24;;;;;;;2.22;1.23;;;;;;;;;;5090818;28;20019;-76
2023/04/27 13:28:50;;;;;;;4.57;1.42;;;;;;;;;;5089035;28;20477;-77
2023/04/27 13:31:16;;;;;;;1.85;1.02;;;;;;;;;;5089341;28;20016;-77
2023/04/27 13:33:42;;;;;;;4.00;1.00;;;;;;;;;;5088902;28;20480;-76
2023/04/27 13:36:09;;;;;;;1.00;0.90;;;;;;;;;;5090113;28;20031;-77
2023/04/27 13:38:35;;;;;;;1.25;1.00;;;;;;;;;;5089107;28;20093;-77
2023/04/27 13:41:01;;;;;;;1.75;1.27;;;;;;;;;;5089445;28;20020;-77
2023/04/27 13:43:27;;;;;;;3.25;1.10;;;;;;;;;;5088584;28;20102;-76
2023/04/27 13:45:57;;;;;;;2.90;1.23;;;;;;;;;;5089277;28;20154;-77
2023/04/27 13:48:24;;;;;;;1.23;1.10;;;;;;;;;;5090247;28;20016;-76
2023/04/27 13:50:50;;;;;;;1.65;1.20;;;;;;;;;;5090000;28;20427;-73
2023/04/27 13:53:16;;;;;;;1.48;0.90;;;;;;;;;;5089166;28;20024;-78
2023/04/27 13:55:43;;;;;;;1.02;1.02;;;;;;;;;;5090417;28;20098;-76
2023/04/27 13:58:09;;;;;;;0.98;0.90;;;;;;;;;;5090100;28;20027;-78
2023/04/27 14:00:36;;;;;;;3.05;1.20;;;;;;;;;;5090203;28;20023;-75
2023/04/27 14:03:03;;;;;;;3.67;0.90;;;;;;;;;;5090676;28;20107;-76
2023/04/27 14:05:29;;;;;;;1.75;1.15;;;;;;;;;;5089213;28;20035;-77
2023/04/27 14:07:55;;;;;;;2.70;1.15;;;;;;;;;;5089965;28;20028;-76
2023/04/27 14:10:24;;;;;;;3.33;1.08;;;;;;;;;;5085089;28;20028;-76
2023/04/27 14:12:50;;;;;;;1.60;0.80;;;;;;;;;;5089916;28;20107;-76
2023/04/27 14:15:16;;;;;;;3.35;1.45;;;;;;;;;;5086193;28;20123;-78
2023/04/27 14:17:42;;;;;;;1.08;0.85;;;;;;;;;;5082888;28;20024;-77
2023/04/27 14:20:08;;;;;;;0.80;0.80;;;;;;;;;;5091045;28;20085;-76
2023/04/27 14:22:35;;;;;;;1.50;1.20;;;;;;;;;;5085710;28;20016;-76
2023/04/27 14:25:01;;;;;;;2.47;1.92;;;;;;;;;;5088492;28;20024;-75
2023/04/27 14:27:28;;;;;;;1.67;1.55;;;;;;;;;;5087552;28;20093;-77
2023/04/27 14:29:54;;;;;;;4.47;1.17;;;;;;;;;;5086393;28;20028;-76
2023/04/27 14:32:21;;;;;;;1.30;1.20;;;;;;;;;;5087500;28;20563;-77
2023/04/27 14:34:47;;;;;;;1.10;1.10;;;;;;;;;;5088199;28;20031;-77
2023/04/27 14:37:13;;;;;;;5.85;0.90;;;;;;;;;;5087348;28;20103;-76
2023/04/27 14:39:39;;;;;;;2.85;1.20;;;;;;;;;;5088450;28;20026;-77